createdAt,value
2019-01-17T00:00:12.488Z,91.80
2019-01-17T00:01:12.516Z,91.99
2019-01-17T00:02:12.542Z,91.80
2019-01-17T00:03:12.539Z,92.09
2019-01-17T00:04:12.548Z,92.18
2019-01-17T00:05:12.567Z,91.42
2019-01-17T00:06:12.587Z,91.33
2019-01-17T00:07:12.595Z,91.61
2019-01-17T00:08:12.621Z,92.18
2019-01-17T00:09:12.643Z,91.89
2019-01-17T00:10:12.644Z,92.18
2019-01-17T00:11:12.680Z,91.42
2019-01-17T00:12:12.688Z,92.18
2019-01-17T00:13:12.693Z,91.80
2019-01-17T00:14:12.703Z,91.80
2019-01-17T00:15:12.726Z,91.80
2019-01-17T00:16:12.737Z,92.09
2019-01-17T00:17:12.758Z,91.89
2019-01-17T00:18:12.784Z,91.99
2019-01-17T00:19:12.795Z,91.99
2019-01-17T00:20:12.802Z,91.89
2019-01-17T00:21:12.814Z,91.89
2019-01-17T00:22:12.830Z,91.99
2019-01-17T00:23:12.855Z,92.18
2019-01-17T00:24:12.893Z,91.99
2019-01-17T00:25:12.898Z,91.33
2019-01-17T00:26:12.905Z,91.24
2019-01-17T00:27:12.911Z,91.33
2019-01-17T00:28:12.936Z,91.61
2019-01-17T00:29:12.951Z,91.33
2019-01-17T00:30:12.958Z,91.42
2019-01-17T00:31:12.981Z,91.33
2019-01-17T00:32:12.994Z,90.66
2019-01-17T00:33:13.015Z,90.95
2019-01-17T00:34:13.041Z,91.52
2019-01-17T00:35:13.045Z,91.04
2019-01-17T00:36:13.061Z,90.57
2019-01-17T00:37:13.081Z,90.57
2019-01-17T00:38:13.094Z,90.66
2019-01-17T00:39:13.103Z,91.33
2019-01-17T00:40:13.122Z,90.85
2019-01-17T00:41:13.138Z,91.52
2019-01-17T00:42:13.149Z,90.85
2019-01-17T00:43:13.162Z,90.76
2019-01-17T00:44:13.183Z,91.42
2019-01-17T00:45:13.194Z,90.57
2019-01-17T00:46:13.219Z,90.85
2019-01-17T00:47:13.234Z,91.33
2019-01-17T00:48:13.249Z,91.42
2019-01-17T00:49:13.263Z,91.42
2019-01-17T00:50:13.281Z,91.42
2019-01-17T00:51:13.298Z,91.52
2019-01-17T00:52:13.309Z,91.24
2019-01-17T00:53:13.325Z,91.24
2019-01-17T00:54:13.344Z,90.76
2019-01-17T00:55:13.354Z,90.47
2019-01-17T00:56:13.372Z,91.04
2019-01-17T00:57:13.402Z,91.24
2019-01-17T00:58:13.406Z,91.33
2019-01-17T00:59:13.431Z,91.24
2019-01-17T01:00:13.436Z,91.42
2019-01-17T01:01:13.451Z,90.38
2019-01-17T01:02:13.477Z,91.04
2019-01-17T01:03:13.481Z,91.33
2019-01-17T01:04:13.527Z,90.95
2019-01-17T01:05:13.530Z,91.61
2019-01-17T01:06:13.535Z,91.24
2019-01-17T01:07:13.543Z,91.33
2019-01-17T01:08:13.571Z,91.14
2019-01-17T01:09:13.596Z,91.04
2019-01-17T01:10:13.593Z,91.04
2019-01-17T01:11:13.608Z,91.42
2019-01-17T01:12:13.627Z,91.42
2019-01-17T01:13:13.643Z,91.42
2019-01-17T01:14:13.653Z,91.71
2019-01-17T01:15:13.697Z,91.04
2019-01-17T01:16:13.702Z,91.24
2019-01-17T01:17:13.710Z,91.24
2019-01-17T01:18:13.722Z,91.42
2019-01-17T01:19:13.743Z,91.28
2019-01-17T01:20:13.752Z,91.66
2019-01-17T01:21:13.768Z,91.09
2019-01-17T01:22:13.799Z,91.28
2019-01-17T01:23:13.808Z,90.80
2019-01-17T01:24:15.556Z,91.19
2019-01-17T01:25:13.841Z,90.71
2019-01-17T01:26:13.852Z,91.09
2019-01-17T01:27:13.868Z,90.52
2019-01-17T01:28:13.933Z,90.42
2019-01-17T01:29:13.897Z,90.33
2019-01-17T01:30:13.912Z,89.95
2019-01-17T01:31:13.947Z,90.23
2019-01-17T01:32:13.948Z,90.33
2019-01-17T01:33:13.956Z,90.71
2019-01-17T01:34:13.980Z,89.57
2019-01-17T01:35:13.997Z,90.23
2019-01-17T01:36:14.013Z,90.00
2019-01-17T01:37:14.028Z,89.81
2019-01-17T01:38:14.069Z,89.95
2019-01-17T01:39:14.057Z,90.23
2019-01-17T01:40:14.085Z,89.95
2019-01-17T01:41:14.092Z,89.67
2019-01-17T01:42:14.122Z,89.76
2019-01-17T01:43:14.134Z,90.05
2019-01-17T01:44:14.165Z,88.81
2019-01-17T01:45:14.172Z,90.14
2019-01-17T01:46:14.178Z,88.71
2019-01-17T01:47:14.198Z,89.19
2019-01-17T01:48:14.219Z,88.81
2019-01-17T01:49:14.219Z,88.76
2019-01-17T01:50:14.257Z,88.01
2019-01-17T01:51:14.253Z,88.76
2019-01-17T01:52:14.276Z,88.10
2019-01-17T01:53:14.291Z,88.10
2019-01-17T01:54:14.309Z,88.20
2019-01-17T01:55:14.326Z,88.24
2019-01-17T01:56:14.333Z,87.57
2019-01-17T01:57:14.354Z,87.24
2019-01-17T01:58:14.386Z,86.87
2019-01-17T01:59:14.391Z,86.30
2019-01-17T02:00:14.411Z,85.53
2019-01-17T02:01:14.418Z,86.30
2019-01-17T02:02:14.433Z,85.82
2019-01-17T02:03:14.444Z,85.91
2019-01-17T02:04:14.465Z,85.91
2019-01-17T02:05:14.489Z,85.72
2019-01-17T02:06:14.498Z,85.91
2019-01-17T02:07:14.516Z,85.20
2019-01-17T02:08:14.528Z,85.53
2019-01-17T02:09:14.570Z,85.91
2019-01-17T02:10:14.570Z,84.59
2019-01-17T02:11:14.580Z,84.68
2019-01-17T02:12:14.593Z,84.59
2019-01-17T02:13:14.609Z,85.86
2019-01-17T02:14:14.622Z,85.01
2019-01-17T02:15:14.639Z,84.01
2019-01-17T02:16:14.701Z,84.49
2019-01-17T02:17:14.675Z,84.59
2019-01-17T02:18:14.691Z,84.30
2019-01-17T02:19:14.704Z,84.49
2019-01-17T02:20:14.723Z,85.16
2019-01-17T02:21:14.781Z,84.63
2019-01-17T02:22:14.754Z,84.25
2019-01-17T02:23:14.762Z,84.30
2019-01-17T02:24:14.783Z,83.73
2019-01-17T02:25:14.814Z,84.68
2019-01-17T02:26:14.816Z,84.63
2019-01-17T02:27:14.847Z,83.36
2019-01-17T02:28:14.871Z,83.26
2019-01-17T02:29:14.873Z,82.88
2019-01-17T02:30:14.964Z,82.88
2019-01-17T02:31:14.909Z,82.78
2019-01-17T02:32:14.915Z,83.73
2019-01-17T02:33:14.944Z,82.59
2019-01-17T02:34:14.964Z,82.69
2019-01-17T02:35:14.973Z,82.97
2019-01-17T02:36:14.976Z,81.93
2019-01-17T02:37:15.002Z,83.26
2019-01-17T02:38:15.017Z,82.88
2019-01-17T02:39:15.027Z,82.97
2019-01-17T02:40:15.038Z,82.12
2019-01-17T02:41:15.073Z,83.20
2019-01-17T02:42:15.074Z,83.01
2019-01-17T02:43:15.086Z,81.55
2019-01-17T02:44:15.122Z,82.69
2019-01-17T02:45:15.133Z,81.84
2019-01-17T02:46:15.133Z,82.21
2019-01-17T02:47:15.148Z,82.31
2019-01-17T02:48:15.172Z,82.21
2019-01-17T02:49:15.194Z,81.45
2019-01-17T02:50:15.200Z,82.59
2019-01-17T02:51:15.227Z,83.01
2019-01-17T02:52:15.232Z,83.11
2019-01-17T02:53:15.251Z,83.01
2019-01-17T02:54:15.264Z,82.35
2019-01-17T02:55:15.287Z,82.64
2019-01-17T02:56:15.292Z,82.26
2019-01-17T02:57:15.309Z,82.54
2019-01-17T02:58:15.329Z,81.74
2019-01-17T02:59:15.352Z,81.55
2019-01-17T03:00:15.373Z,80.60
2019-01-17T03:01:15.378Z,80.79
2019-01-17T03:02:15.444Z,80.41
2019-01-17T03:03:15.411Z,80.88
2019-01-17T03:04:15.428Z,80.98
2019-01-17T03:05:15.453Z,81.17
2019-01-17T03:06:15.461Z,81.45
2019-01-17T03:07:15.487Z,79.65
2019-01-17T03:08:15.511Z,79.84
2019-01-17T03:09:15.503Z,78.99
2019-01-17T03:10:15.573Z,79.55
2019-01-17T03:11:15.536Z,79.55
2019-01-17T03:12:15.554Z,79.94
2019-01-17T03:13:15.579Z,79.94
2019-01-17T03:14:15.589Z,79.94
2019-01-17T03:15:15.601Z,79.08
2019-01-17T03:16:15.632Z,80.03
2019-01-17T03:17:15.640Z,79.84
2019-01-17T03:18:15.689Z,80.03
2019-01-17T03:19:15.672Z,79.84
2019-01-17T03:20:15.679Z,80.22
2019-01-17T03:21:15.696Z,79.17
2019-01-17T03:22:15.712Z,79.84
2019-01-17T03:23:15.742Z,80.41
2019-01-17T03:24:15.753Z,79.17
2019-01-17T03:25:15.768Z,79.17
2019-01-17T03:26:15.781Z,80.13
2019-01-17T03:27:15.799Z,79.74
2019-01-17T03:28:15.806Z,79.74
2019-01-17T03:29:15.821Z,79.46
2019-01-17T03:30:15.846Z,80.22
2019-01-17T03:31:15.869Z,79.94
2019-01-17T03:32:15.876Z,79.65
2019-01-17T03:33:15.895Z,79.46
2019-01-17T03:34:15.899Z,79.74
2019-01-17T03:35:15.918Z,79.65
2019-01-17T03:36:15.932Z,79.84
2019-01-17T03:37:15.962Z,79.84
2019-01-17T03:38:15.966Z,79.17
2019-01-17T03:39:15.988Z,78.99
2019-01-17T03:40:16.015Z,78.80
2019-01-17T03:41:16.014Z,78.70
2019-01-17T03:42:16.031Z,79.55
2019-01-17T03:43:16.042Z,80.13
2019-01-17T03:44:16.065Z,78.99
2019-01-17T03:45:16.072Z,78.99
2019-01-17T03:46:16.089Z,77.81
2019-01-17T03:47:16.111Z,77.94
2019-01-17T03:48:16.130Z,80.60
2019-01-17T03:49:16.136Z,79.65
2019-01-17T03:50:16.165Z,78.42
2019-01-17T03:51:16.213Z,78.19
2019-01-17T03:52:16.202Z,78.38
2019-01-17T03:53:16.235Z,78.51
2019-01-17T03:54:16.216Z,79.17
2019-01-17T03:55:16.254Z,79.36
2019-01-17T03:56:21.646Z,78.70
2019-01-17T03:57:16.257Z,79.55
2019-01-17T03:58:16.291Z,79.17
2019-01-17T03:59:16.296Z,77.71
2019-01-17T04:00:16.312Z,78.61
2019-01-17T04:01:16.324Z,78.19
2019-01-17T04:02:16.341Z,78.51
2019-01-17T04:03:16.355Z,78.70
2019-01-17T04:04:16.374Z,79.71
2019-01-17T04:05:16.385Z,79.46
2019-01-17T04:06:16.403Z,79.46
2019-01-17T04:07:16.417Z,79.74
2019-01-17T04:08:16.435Z,79.46
2019-01-17T04:09:16.453Z,79.08
2019-01-17T04:10:16.479Z,78.51
2019-01-17T04:11:16.479Z,79.84
2019-01-17T04:12:16.506Z,79.08
2019-01-17T04:13:16.518Z,79.36
2019-01-17T04:14:16.532Z,79.04
2019-01-17T04:15:16.547Z,79.65
2019-01-17T04:16:16.558Z,78.99
2019-01-17T04:17:16.569Z,79.55
2019-01-17T04:18:16.592Z,79.27
2019-01-17T04:19:16.617Z,79.36
2019-01-17T04:20:16.624Z,80.41
2019-01-17T04:21:16.631Z,79.08
2019-01-17T04:22:16.678Z,78.85
2019-01-17T04:23:16.675Z,79.17
2019-01-17T04:24:16.686Z,79.74
2019-01-17T04:25:16.698Z,78.51
2019-01-17T04:26:16.721Z,78.32
2019-01-17T04:27:16.727Z,79.65
2019-01-17T04:28:16.743Z,79.17
2019-01-17T04:29:16.755Z,78.95
2019-01-17T04:30:16.828Z,78.75
2019-01-17T04:31:16.814Z,78.99
2019-01-17T04:32:16.811Z,79.33
2019-01-17T04:33:16.827Z,79.33
2019-01-17T04:34:16.834Z,78.47
2019-01-17T04:35:16.850Z,79.42
2019-01-17T04:36:16.874Z,79.90
2019-01-17T04:37:16.887Z,79.71
2019-01-17T04:38:16.897Z,79.17
2019-01-17T04:39:16.957Z,79.74
2019-01-17T04:40:16.929Z,80.79
2019-01-17T04:41:16.941Z,79.46
2019-01-17T04:42:16.963Z,79.84
2019-01-17T04:43:16.993Z,79.42
2019-01-17T04:44:16.994Z,80.03
2019-01-17T04:45:17.010Z,80.18
2019-01-17T04:46:17.041Z,81.07
2019-01-17T04:47:17.042Z,81.36
2019-01-17T04:48:17.055Z,81.07
2019-01-17T04:49:17.068Z,80.60
2019-01-17T04:50:17.102Z,80.41
2019-01-17T04:51:17.112Z,79.84
2019-01-17T04:52:17.128Z,80.88
2019-01-17T04:53:17.132Z,80.32
2019-01-17T04:54:17.160Z,80.41
2019-01-17T04:55:17.167Z,79.33
2019-01-17T04:56:17.179Z,80.98
2019-01-17T04:57:17.189Z,81.07
2019-01-17T04:58:17.211Z,80.88
2019-01-17T04:59:17.230Z,80.79
2019-01-17T05:00:17.243Z,79.94
2019-01-17T05:01:17.272Z,80.18
2019-01-17T05:02:17.276Z,79.94
2019-01-17T05:03:17.286Z,78.95
2019-01-17T05:04:17.301Z,79.94
2019-01-17T05:05:17.322Z,79.71
2019-01-17T05:06:17.350Z,79.52
2019-01-17T05:07:17.354Z,78.75
2019-01-17T05:08:17.377Z,79.80
2019-01-17T05:09:17.384Z,79.80
2019-01-17T05:10:17.417Z,79.80
2019-01-17T05:11:17.414Z,79.61
2019-01-17T05:12:17.440Z,79.36
2019-01-17T05:13:17.443Z,79.90
2019-01-17T05:14:17.459Z,80.37
2019-01-17T05:15:17.471Z,79.80
2019-01-17T05:16:17.502Z,79.90
2019-01-17T05:17:17.509Z,80.51
2019-01-17T05:18:17.529Z,80.69
2019-01-17T05:19:17.545Z,81.17
2019-01-17T05:20:17.561Z,81.84
2019-01-17T05:21:17.576Z,81.65
2019-01-17T05:22:17.588Z,81.26
2019-01-17T05:23:17.600Z,80.88
2019-01-17T05:24:17.638Z,80.88
2019-01-17T05:25:17.626Z,81.36
2019-01-17T05:26:17.673Z,81.36
2019-01-17T05:27:17.662Z,82.12
2019-01-17T05:28:17.677Z,82.21
2019-01-17T05:29:17.707Z,82.21
2019-01-17T05:30:17.707Z,81.55
2019-01-17T05:31:17.766Z,81.17
2019-01-17T05:32:17.748Z,81.93
2019-01-17T05:33:17.757Z,81.84
2019-01-17T05:34:17.799Z,82.12
2019-01-17T05:35:17.787Z,83.07
2019-01-17T05:36:17.812Z,83.16
2019-01-17T05:37:17.815Z,83.07
2019-01-17T05:38:17.829Z,82.50
2019-01-17T05:39:17.845Z,82.69
2019-01-17T05:40:17.868Z,82.59
2019-01-17T05:41:17.876Z,83.07
2019-01-17T05:42:17.906Z,82.88
2019-01-17T05:43:17.908Z,82.97
2019-01-17T05:44:17.949Z,83.16
2019-01-17T05:45:17.944Z,83.36
2019-01-17T05:46:17.957Z,83.36
2019-01-17T05:47:17.973Z,83.54
2019-01-17T05:48:18.012Z,83.16
2019-01-17T05:49:18.022Z,83.64
2019-01-17T05:50:18.023Z,83.73
2019-01-17T05:51:18.039Z,82.97
2019-01-17T05:52:18.060Z,83.26
2019-01-17T05:53:18.084Z,82.78
2019-01-17T05:54:18.096Z,82.88
2019-01-17T05:55:20.101Z,83.26
2019-01-17T05:56:18.132Z,83.07
2019-01-17T05:57:18.132Z,82.78
2019-01-17T05:58:18.171Z,82.78
2019-01-17T05:59:18.163Z,83.26
2019-01-17T06:00:18.185Z,83.16
2019-01-17T06:01:18.199Z,83.16
2019-01-17T06:02:18.223Z,83.45
2019-01-17T06:03:18.237Z,83.36
2019-01-17T06:04:18.246Z,83.26
2019-01-17T06:05:18.267Z,82.88
2019-01-17T06:06:18.281Z,82.88
2019-01-17T06:07:18.294Z,82.50
2019-01-17T06:08:18.327Z,82.50
2019-01-17T06:09:18.336Z,82.78
2019-01-17T06:10:18.342Z,83.26
2019-01-17T06:11:18.361Z,82.88
2019-01-17T06:12:18.376Z,82.97
2019-01-17T06:13:18.389Z,82.21
2019-01-17T06:14:18.403Z,83.16
2019-01-17T06:15:18.437Z,82.69
2019-01-17T06:16:18.453Z,82.59
2019-01-17T06:17:18.451Z,83.36
2019-01-17T06:18:18.466Z,82.59
2019-01-17T06:19:18.492Z,83.26
2019-01-17T06:20:18.506Z,83.26
2019-01-17T06:21:18.517Z,83.92
2019-01-17T06:22:18.533Z,83.07
2019-01-17T06:23:18.546Z,82.97
2019-01-17T06:24:18.563Z,83.45
2019-01-17T06:25:18.579Z,83.16
2019-01-17T06:26:18.605Z,82.78
2019-01-17T06:27:18.611Z,83.26
2019-01-17T06:28:18.626Z,82.88
2019-01-17T06:29:18.656Z,82.88
2019-01-17T06:30:18.662Z,83.36
2019-01-17T06:31:18.682Z,82.69
2019-01-17T06:32:18.694Z,82.69
2019-01-17T06:33:18.716Z,83.36
2019-01-17T06:34:18.738Z,83.26
2019-01-17T06:35:18.747Z,83.26
2019-01-17T06:36:18.758Z,83.36
2019-01-17T06:37:18.772Z,83.54
2019-01-17T06:38:18.792Z,83.36
2019-01-17T06:39:18.807Z,83.26
2019-01-17T06:40:18.845Z,82.97
2019-01-17T06:41:18.837Z,83.16
2019-01-17T06:42:18.851Z,82.78
2019-01-17T06:43:18.868Z,83.26
2019-01-17T06:44:20.433Z,82.88
2019-01-17T06:45:18.897Z,82.78
2019-01-17T06:46:18.932Z,83.16
2019-01-17T06:47:18.928Z,83.07
2019-01-17T06:48:18.952Z,82.88
2019-01-17T06:49:18.965Z,82.78
2019-01-17T06:50:18.980Z,83.26
2019-01-17T06:51:18.998Z,82.88
2019-01-17T06:52:19.009Z,83.36
2019-01-17T06:53:19.037Z,83.36
2019-01-17T06:54:19.060Z,83.16
2019-01-17T06:55:19.062Z,83.45
2019-01-17T06:56:19.080Z,83.54
2019-01-17T06:57:19.097Z,83.49
2019-01-17T06:58:19.105Z,83.45
2019-01-17T06:59:19.163Z,83.16
2019-01-17T07:00:19.158Z,82.69
2019-01-17T07:01:19.163Z,83.16
2019-01-17T07:02:19.174Z,83.26
2019-01-17T07:03:19.194Z,83.16
2019-01-17T07:04:19.203Z,83.07
2019-01-17T07:05:19.216Z,82.78
2019-01-17T07:06:19.243Z,83.20
2019-01-17T07:07:19.258Z,82.97
2019-01-17T07:08:19.277Z,83.83
2019-01-17T07:09:19.288Z,82.88
2019-01-17T07:10:19.302Z,83.16
2019-01-17T07:11:19.315Z,83.36
2019-01-17T07:12:19.334Z,83.01
2019-01-17T07:13:19.347Z,83.36
2019-01-17T07:14:19.366Z,82.88
2019-01-17T07:15:19.378Z,82.50
2019-01-17T07:16:19.396Z,82.97
2019-01-17T07:17:19.415Z,82.69
2019-01-17T07:18:19.424Z,82.59
2019-01-17T07:19:19.485Z,82.88
2019-01-17T07:20:19.463Z,83.26
2019-01-17T07:21:19.484Z,83.16
2019-01-17T07:22:19.496Z,82.78
2019-01-17T07:23:19.567Z,83.16
2019-01-17T07:24:19.523Z,83.26
2019-01-17T07:25:19.550Z,83.26
2019-01-17T07:26:19.552Z,83.73
2019-01-17T07:27:19.595Z,83.36
2019-01-17T07:28:19.593Z,83.64
2019-01-17T07:29:19.601Z,83.16
2019-01-17T07:30:19.628Z,83.92
2019-01-17T07:31:19.659Z,83.36
2019-01-17T07:32:19.651Z,82.97
2019-01-17T07:33:19.676Z,82.97
2019-01-17T07:34:19.682Z,83.07
2019-01-17T07:35:19.698Z,81.93
2019-01-17T07:36:19.713Z,81.65
2019-01-17T07:37:19.737Z,81.65
2019-01-17T07:38:19.757Z,81.93
2019-01-17T07:39:19.799Z,82.12
2019-01-17T07:40:19.779Z,81.55
2019-01-17T07:41:19.794Z,82.40
2019-01-17T07:42:19.813Z,83.16
2019-01-17T07:43:19.826Z,82.03
2019-01-17T07:44:19.842Z,82.21
2019-01-17T07:45:19.856Z,82.69
2019-01-17T07:46:19.874Z,81.65
2019-01-17T07:47:19.893Z,82.69
2019-01-17T07:48:19.912Z,82.78
2019-01-17T07:49:19.921Z,82.78
2019-01-17T07:50:19.954Z,83.07
2019-01-17T07:51:19.979Z,82.69
2019-01-17T07:52:19.974Z,83.36
2019-01-17T07:53:20.008Z,83.36
2019-01-17T07:54:20.011Z,82.97
2019-01-17T07:55:20.019Z,82.88
2019-01-17T07:56:20.035Z,82.97
2019-01-17T07:57:20.060Z,83.73
2019-01-17T07:58:20.066Z,83.26
2019-01-17T07:59:20.077Z,82.69
2019-01-17T08:00:20.110Z,84.01
2019-01-17T08:01:20.112Z,83.83
2019-01-17T08:02:20.127Z,83.83
2019-01-17T08:03:20.150Z,84.78
2019-01-17T08:04:20.162Z,84.49
2019-01-17T08:05:20.203Z,84.78
2019-01-17T08:06:20.190Z,84.40
2019-01-17T08:07:20.218Z,84.59
2019-01-17T08:08:20.231Z,84.40
2019-01-17T08:09:20.247Z,84.78
2019-01-17T08:10:20.263Z,85.35
2019-01-17T08:11:20.300Z,84.59
2019-01-17T08:12:20.311Z,84.87
2019-01-17T08:13:20.299Z,85.06
2019-01-17T08:14:20.320Z,85.44
2019-01-17T08:15:20.356Z,84.97
2019-01-17T08:16:20.366Z,85.25
2019-01-17T08:17:20.368Z,85.63
2019-01-17T08:18:20.379Z,85.25
2019-01-17T08:19:20.399Z,84.68
2019-01-17T08:20:20.411Z,85.06
2019-01-17T08:21:20.433Z,84.87
2019-01-17T08:22:20.446Z,85.63
2019-01-17T08:23:20.482Z,85.06
2019-01-17T08:24:20.518Z,85.63
2019-01-17T08:25:20.504Z,85.63
2019-01-17T08:26:20.517Z,85.06
2019-01-17T08:27:20.535Z,85.16
2019-01-17T08:28:20.541Z,85.16
2019-01-17T08:29:20.554Z,85.44
2019-01-17T08:30:20.574Z,85.06
2019-01-17T08:31:20.585Z,85.25
2019-01-17T08:32:20.600Z,84.68
2019-01-17T08:33:20.618Z,84.87
2019-01-17T08:34:20.631Z,85.06
2019-01-17T08:35:20.648Z,84.97
2019-01-17T08:36:20.666Z,85.72
2019-01-17T08:37:20.679Z,85.53
2019-01-17T08:38:20.697Z,86.20
2019-01-17T08:39:20.714Z,86.39
2019-01-17T08:40:20.727Z,86.01
2019-01-17T08:41:20.747Z,86.39
2019-01-17T08:42:20.778Z,86.05
2019-01-17T08:43:20.774Z,85.96
2019-01-17T08:44:20.803Z,85.35
2019-01-17T08:45:20.812Z,85.82
2019-01-17T08:46:20.830Z,85.35
2019-01-17T08:47:20.844Z,85.77
2019-01-17T08:48:20.865Z,85.35
2019-01-17T08:49:20.869Z,85.91
2019-01-17T08:50:20.886Z,85.06
2019-01-17T08:51:20.908Z,84.49
2019-01-17T08:52:20.918Z,85.06
2019-01-17T08:53:20.942Z,84.68
2019-01-17T08:54:20.950Z,85.16
2019-01-17T08:55:20.968Z,85.63
2019-01-17T08:56:21.004Z,85.30
2019-01-17T08:57:21.005Z,85.77
2019-01-17T08:58:21.016Z,86.15
2019-01-17T08:59:21.031Z,86.15
2019-01-17T09:00:21.057Z,86.53
2019-01-17T09:01:21.062Z,86.72
2019-01-17T09:02:21.080Z,86.53
2019-01-17T09:03:21.104Z,87.67
2019-01-17T09:04:21.112Z,86.53
2019-01-17T09:05:21.124Z,87.01
2019-01-17T09:06:21.147Z,86.34
2019-01-17T09:07:21.163Z,86.53
2019-01-17T09:08:21.185Z,86.53
2019-01-17T09:09:21.194Z,86.05
2019-01-17T09:10:21.215Z,86.05
2019-01-17T09:11:21.234Z,85.86
2019-01-17T09:12:21.248Z,86.43
2019-01-17T09:13:21.258Z,86.24
2019-01-17T09:14:21.288Z,86.91
2019-01-17T09:15:21.329Z,87.19
2019-01-17T09:16:21.315Z,86.05
2019-01-17T09:17:21.332Z,86.05
2019-01-17T09:18:21.342Z,86.53
2019-01-17T09:19:21.364Z,87.01
2019-01-17T09:20:21.372Z,87.38
2019-01-17T09:21:21.390Z,87.29
2019-01-17T09:22:21.413Z,87.95
2019-01-17T09:23:21.418Z,87.38
2019-01-17T09:24:21.487Z,87.24
2019-01-17T09:25:21.453Z,88.28
2019-01-17T09:26:21.470Z,88.38
2019-01-17T09:27:21.485Z,88.38
2019-01-17T09:28:21.508Z,87.71
2019-01-17T09:29:21.522Z,88.67
2019-01-17T09:30:21.534Z,87.86
2019-01-17T09:31:21.561Z,87.57
2019-01-17T09:32:21.573Z,88.34
2019-01-17T09:33:21.584Z,88.43
2019-01-17T09:34:21.606Z,88.62
2019-01-17T09:35:21.635Z,87.76
2019-01-17T09:36:21.636Z,87.76
2019-01-17T09:37:21.673Z,87.57
2019-01-17T09:38:21.674Z,88.15
2019-01-17T09:39:21.684Z,87.76
2019-01-17T09:40:21.715Z,87.67
2019-01-17T09:41:21.718Z,88.24
2019-01-17T09:42:21.733Z,88.34
2019-01-17T09:43:21.763Z,87.29
2019-01-17T09:44:21.772Z,88.62
2019-01-17T09:45:21.783Z,88.53
2019-01-17T09:46:21.799Z,88.34
2019-01-17T09:47:21.820Z,88.43
2019-01-17T09:48:21.834Z,88.85
2019-01-17T09:49:21.858Z,89.14
2019-01-17T09:50:21.873Z,88.28
2019-01-17T09:51:21.889Z,89.52
2019-01-17T09:52:21.901Z,89.61
2019-01-17T09:53:21.914Z,89.95
2019-01-17T09:54:21.951Z,88.81
2019-01-17T09:55:21.962Z,89.33
2019-01-17T09:56:21.972Z,89.71
2019-01-17T09:57:21.987Z,89.52
2019-01-17T09:58:22.011Z,89.04
2019-01-17T09:59:22.028Z,89.71
2019-01-17T10:00:22.051Z,89.23
2019-01-17T10:01:22.067Z,90.00
2019-01-17T10:02:22.079Z,89.52
2019-01-17T10:03:22.090Z,89.61
2019-01-17T10:04:26.409Z,90.09
2019-01-17T10:05:22.122Z,88.47
2019-01-17T10:06:22.134Z,89.52
2019-01-17T10:07:22.150Z,90.09
2019-01-17T10:08:22.167Z,90.66
2019-01-17T10:09:22.183Z,89.90
2019-01-17T10:10:22.225Z,90.09
2019-01-17T10:11:22.236Z,90.47
2019-01-17T10:12:22.240Z,90.75
2019-01-17T10:13:22.481Z,90.94
2019-01-17T10:14:22.278Z,90.85
2019-01-17T10:15:23.626Z,90.75
2019-01-17T10:16:22.308Z,91.13
2019-01-17T10:17:22.318Z,92.37
2019-01-17T10:18:22.360Z,91.42
2019-01-17T10:19:22.366Z,91.52
2019-01-17T10:20:22.373Z,92.37
2019-01-17T10:21:22.396Z,91.80
2019-01-17T10:22:22.409Z,91.52
2019-01-17T10:23:22.419Z,91.61
2019-01-17T10:24:22.442Z,91.71
2019-01-17T10:25:22.456Z,91.71
2019-01-17T10:26:22.478Z,91.23
2019-01-17T10:27:22.490Z,92.37
2019-01-17T10:28:22.504Z,90.94
2019-01-17T10:29:22.539Z,91.61
2019-01-17T10:30:22.539Z,91.61
2019-01-17T10:31:22.559Z,91.42
2019-01-17T10:32:22.573Z,91.71
2019-01-17T10:33:22.613Z,91.13
2019-01-17T10:34:22.623Z,90.00
2019-01-17T10:35:22.629Z,90.00
2019-01-17T10:36:22.652Z,90.56
2019-01-17T10:37:22.658Z,90.56
2019-01-17T10:38:22.672Z,90.37
2019-01-17T10:39:22.707Z,90.52
2019-01-17T10:40:22.711Z,90.14
2019-01-17T10:41:22.718Z,90.80
2019-01-17T10:42:22.748Z,90.09
2019-01-17T10:43:22.772Z,89.56
2019-01-17T10:44:22.781Z,89.47
2019-01-17T10:45:22.795Z,90.23
2019-01-17T10:46:22.813Z,90.99
2019-01-17T10:47:22.829Z,90.99
2019-01-17T10:48:22.846Z,90.94
2019-01-17T10:49:22.865Z,90.94
2019-01-17T10:50:22.881Z,91.42
2019-01-17T10:51:22.902Z,90.56
2019-01-17T10:52:22.914Z,90.84
2019-01-17T10:53:22.939Z,91.61
2019-01-17T10:54:22.948Z,91.42
2019-01-17T10:55:22.967Z,90.66
2019-01-17T10:56:27.815Z,91.27
2019-01-17T10:57:23.004Z,91.32
2019-01-17T10:58:23.018Z,90.61
2019-01-17T10:59:23.051Z,92.70
2019-01-17T11:00:23.062Z,91.65
2019-01-17T11:01:23.071Z,92.70
2019-01-17T11:02:23.100Z,92.79
2019-01-17T11:03:23.107Z,92.27
2019-01-17T11:04:23.127Z,91.99
2019-01-17T11:05:23.144Z,91.51
2019-01-17T11:06:23.165Z,92.65
2019-01-17T11:07:23.226Z,91.42
2019-01-17T11:08:23.202Z,91.28
2019-01-17T11:09:23.217Z,92.56
2019-01-17T11:10:23.232Z,92.08
2019-01-17T11:11:23.258Z,91.61
2019-01-17T11:12:23.283Z,93.04
2019-01-17T11:13:23.289Z,92.18
2019-01-17T11:14:23.312Z,92.08
2019-01-17T11:15:23.319Z,92.46
2019-01-17T11:16:23.351Z,91.51
2019-01-17T11:17:23.360Z,92.32
2019-01-17T11:18:23.379Z,92.22
2019-01-17T11:19:23.401Z,91.56
2019-01-17T11:20:23.417Z,92.32
2019-01-17T11:21:23.430Z,91.47
2019-01-17T11:22:23.456Z,91.28
2019-01-17T11:23:23.462Z,91.37
2019-01-17T11:24:23.483Z,91.37
2019-01-17T11:25:23.505Z,91.37
2019-01-17T11:26:23.524Z,92.41
2019-01-17T11:27:23.533Z,91.89
2019-01-17T11:28:23.571Z,91.94
2019-01-17T11:29:23.569Z,92.51
2019-01-17T11:30:23.607Z,92.41
2019-01-17T11:31:23.605Z,92.36
2019-01-17T11:32:23.625Z,91.56
2019-01-17T11:33:23.641Z,91.47
2019-01-17T11:34:23.654Z,92.61
2019-01-17T11:35:23.676Z,91.85
2019-01-17T11:36:23.694Z,91.66
2019-01-17T11:37:23.707Z,91.56
2019-01-17T11:38:23.729Z,91.47
2019-01-17T11:39:23.762Z,92.61
2019-01-17T11:40:23.760Z,92.41
2019-01-17T11:41:23.790Z,92.41
2019-01-17T11:42:23.797Z,92.51
2019-01-17T11:43:23.821Z,92.51
2019-01-17T11:44:23.855Z,92.51
2019-01-17T11:45:23.844Z,91.47
2019-01-17T11:46:23.866Z,91.85
2019-01-17T11:47:23.923Z,92.13
2019-01-17T11:48:23.902Z,91.75
2019-01-17T11:49:23.955Z,92.32
2019-01-17T11:50:23.941Z,92.80
2019-01-17T11:51:23.951Z,92.61
2019-01-17T11:52:23.982Z,93.37
2019-01-17T11:53:23.983Z,93.27
2019-01-17T11:54:24.009Z,92.51
2019-01-17T11:55:24.024Z,92.32
2019-01-17T11:56:24.042Z,92.51
2019-01-17T11:57:24.059Z,92.08
2019-01-17T11:58:24.082Z,92.99
2019-01-17T11:59:24.090Z,93.18
2019-01-17T12:00:24.108Z,92.94
2019-01-17T12:01:24.134Z,92.89
2019-01-17T12:02:24.140Z,93.23
2019-01-17T12:03:24.163Z,92.80
2019-01-17T12:04:24.180Z,92.99
2019-01-17T12:05:24.197Z,92.41
2019-01-17T12:06:24.212Z,93.37
2019-01-17T12:07:24.234Z,93.13
2019-01-17T12:08:24.272Z,92.70
2019-01-17T12:09:24.266Z,92.41
2019-01-17T12:10:24.282Z,92.99
2019-01-17T12:11:24.314Z,93.18
2019-01-17T12:12:24.324Z,93.84
2019-01-17T12:13:24.330Z,93.41
2019-01-17T12:14:24.370Z,92.99
2019-01-17T12:15:24.374Z,93.89
2019-01-17T12:16:24.387Z,93.32
2019-01-17T12:17:24.407Z,93.08
2019-01-17T12:18:24.420Z,93.27
2019-01-17T12:19:24.436Z,92.94
2019-01-17T12:20:24.462Z,93.75
2019-01-17T12:21:24.474Z,93.18
2019-01-17T12:22:24.822Z,93.23
2019-01-17T12:23:24.508Z,93.32
2019-01-17T12:24:24.529Z,93.41
2019-01-17T12:25:24.568Z,93.51
2019-01-17T12:26:24.569Z,93.51
2019-01-17T12:27:24.575Z,93.04
2019-01-17T12:28:24.594Z,93.89
2019-01-17T12:29:24.607Z,92.84
2019-01-17T12:30:24.637Z,93.23
2019-01-17T12:31:24.673Z,92.75
2019-01-17T12:32:24.666Z,93.37
2019-01-17T12:33:24.680Z,92.41
2019-01-17T12:34:24.692Z,93.08
2019-01-17T12:35:24.714Z,92.41
2019-01-17T12:36:24.731Z,92.22
2019-01-17T12:37:24.749Z,92.80
2019-01-17T12:38:24.787Z,92.32
2019-01-17T12:39:24.781Z,92.51
2019-01-17T12:40:24.803Z,91.94
2019-01-17T12:41:24.820Z,91.52
2019-01-17T12:42:24.837Z,91.33
2019-01-17T12:43:24.855Z,91.33
2019-01-17T12:44:24.875Z,91.13
2019-01-17T12:45:24.886Z,91.80
2019-01-17T12:46:24.906Z,91.52
2019-01-17T12:47:24.921Z,90.42
2019-01-17T12:48:24.935Z,90.94
2019-01-17T12:49:24.965Z,90.85
2019-01-17T12:50:24.982Z,90.37
2019-01-17T12:51:24.993Z,89.71
2019-01-17T12:52:25.011Z,90.00